Pagrindinis puslapis
METAR-TAF:

METAR-TAF

Oro uostai :

Nadžafas, Irakas

platuma: 31-59-23N, ilguma: 44-24-15E, Aukštis: 31 m

Dabartinis oras

Ataskaita buvo paskelbta 26 minutes, ne 12:00 UTC
Vėjas 8 kt iš Šiaurės Rytų
Temperatūra 42°C
Drėgmė 7%
Slėgis 1004 hPa
Matomumas: 8000 m
Išsisklaidę debesys ne aukštis 4000 ft

METAR: ORNI 011200Z 04008KT 8000 SCT040 42/M00 Q1004 NOSIG

Laikas: 15:26 (12:26 UTC)

Prognozė

Ataskaita buvo paskelbta 1 valandą ir 56 minutes, ne 10:30 UTC
Prognozė galioja nuo 01 metu 12 UTC su 02 metu 12 UTC
Vėjas 8 kt iš Šiaurės
Matomumas: 7000 m
Mažai debesys ne aukštis 4000 ft

TAF: ORNI 011030Z 0112/0212 35008KT 7000 FEW040

Orai ataskaitas ir orų prognozės (METAR, TAF).

turimą stotys yra geltonos ir raudonos taškus žemėlapyje.

Perkelti pele per norėdami pamatyti stoties vardą.

Tada spustelėkite, norėdami matyti oro stebėjimo ir prognozės.

Norėdami pakeisti žemėlapį: spustelėkite ant žalios mygtukų su juodo kryžiaus žemyn,; žalią mygtuką su brūkšneliu, jei norite nutolinti; arba žalių rodyklių gretimoms žemėlapius.


METAR-TAF: